sensor_id;sensor_type;location;lat;lon;timestamp;P1;durP1;ratioP1;P2;durP2;ratioP2
43807;SDS011;29438;50.664;10.098;2022-07-25T00:00:36;7.82;;;5.13;;
43807;SDS011;29438;50.664;10.098;2022-07-25T00:03:02;7.88;;;5.55;;
43807;SDS011;29438;50.664;10.098;2022-07-25T00:05:28;6.25;;;4.95;;
43807;SDS011;29438;50.664;10.098;2022-07-25T00:07:53;8.15;;;5.30;;
43807;SDS011;29438;50.664;10.098;2022-07-25T00:10:19;7.45;;;5.30;;
43807;SDS011;29438;50.664;10.098;2022-07-25T00:12:45;8.32;;;5.57;;
43807;SDS011;29438;50.664;10.098;2022-07-25T00:15:11;7.85;;;5.15;;
43807;SDS011;29438;50.664;10.098;2022-07-25T00:17:37;6.80;;;5.35;;
43807;SDS011;29438;50.664;10.098;2022-07-25T00:20:03;8.50;;;5.80;;
43807;SDS011;29438;50.664;10.098;2022-07-25T00:22:29;6.55;;;5.13;;
43807;SDS011;29438;50.664;10.098;2022-07-25T00:24:55;6.85;;;5.20;;
43807;SDS011;29438;50.664;10.098;2022-07-25T00:27:20;6.55;;;5.07;;
43807;SDS011;29438;50.664;10.098;2022-07-25T00:29:46;8.80;;;5.53;;
43807;SDS011;29438;50.664;10.098;2022-07-25T00:32:12;8.18;;;5.05;;
43807;SDS011;29438;50.664;10.098;2022-07-25T00:34:37;7.63;;;5.15;;
43807;SDS011;29438;50.664;10.098;2022-07-25T00:37:03;7.65;;;5.32;;
43807;SDS011;29438;50.664;10.098;2022-07-25T00:39:29;6.80;;;4.93;;
43807;SDS011;29438;50.664;10.098;2022-07-25T00:41:54;7.32;;;5.40;;
43807;SDS011;29438;50.664;10.098;2022-07-25T00:44:20;7.85;;;5.60;;
43807;SDS011;29438;50.664;10.098;2022-07-25T00:46:47;9.30;;;5.57;;
43807;SDS011;29438;50.664;10.098;2022-07-25T00:49:12;7.43;;;5.68;;
43807;SDS011;29438;50.664;10.098;2022-07-25T00:51:38;6.85;;;5.22;;
43807;SDS011;29438;50.664;10.098;2022-07-25T00:54:07;7.35;;;5.43;;
43807;SDS011;29438;50.664;10.098;2022-07-25T00:56:32;6.25;;;5.07;;
43807;SDS011;29438;50.664;10.098;2022-07-25T00:58:58;8.13;;;5.72;;
43807;SDS011;29438;50.664;10.098;2022-07-25T01:01:24;8.38;;;5.60;;
43807;SDS011;29438;50.664;10.098;2022-07-25T01:03:49;8.48;;;5.60;;
43807;SDS011;29438;50.664;10.098;2022-07-25T01:06:15;7.40;;;5.43;;
43807;SDS011;29438;50.664;10.098;2022-07-25T01:08:40;6.85;;;5.32;;
43807;SDS011;29438;50.664;10.098;2022-07-25T01:11:06;8.85;;;5.72;;
43807;SDS011;29438;50.664;10.098;2022-07-25T01:13:32;7.38;;;5.35;;
43807;SDS011;29438;50.664;10.098;2022-07-25T01:15:58;8.55;;;5.78;;
43807;SDS011;29438;50.664;10.098;2022-07-25T01:18:24;8.20;;;6.00;;
43807;SDS011;29438;50.664;10.098;2022-07-25T01:20:50;7.90;;;5.68;;
43807;SDS011;29438;50.664;10.098;2022-07-25T01:23:15;9.50;;;5.85;;
43807;SDS011;29438;50.664;10.098;2022-07-25T01:25:41;7.63;;;5.45;;
43807;SDS011;29438;50.664;10.098;2022-07-25T01:28:06;7.50;;;5.55;;
43807;SDS011;29438;50.664;10.098;2022-07-25T01:30:32;8.10;;;5.90;;
43807;SDS011;29438;50.664;10.098;2022-07-25T01:32:57;8.88;;;6.03;;
43807;SDS011;29438;50.664;10.098;2022-07-25T01:35:23;9.23;;;6.00;;
43807;SDS011;29438;50.664;10.098;2022-07-25T01:37:48;7.60;;;5.75;;
43807;SDS011;29438;50.664;10.098;2022-07-25T01:40:14;6.68;;;4.80;;
43807;SDS011;29438;50.664;10.098;2022-07-25T01:42:40;8.95;;;5.47;;
43807;SDS011;29438;50.664;10.098;2022-07-25T01:45:06;7.28;;;5.47;;
43807;SDS011;29438;50.664;10.098;2022-07-25T01:47:32;8.70;;;5.65;;
43807;SDS011;29438;50.664;10.098;2022-07-25T01:49:58;7.95;;;5.53;;
43807;SDS011;29438;50.664;10.098;2022-07-25T01:52:23;7.63;;;5.68;;
43807;SDS011;29438;50.664;10.098;2022-07-25T01:54:49;7.82;;;5.45;;
43807;SDS011;29438;50.664;10.098;2022-07-25T01:57:14;8.55;;;5.88;;
43807;SDS011;29438;50.664;10.098;2022-07-25T01:59:40;8.18;;;5.50;;
43807;SDS011;29438;50.664;10.098;2022-07-25T02:02:06;9.00;;;5.70;;
43807;SDS011;29438;50.664;10.098;2022-07-25T02:04:32;7.10;;;5.50;;
43807;SDS011;29438;50.664;10.098;2022-07-25T02:06:58;8.05;;;5.63;;
43807;SDS011;29438;50.664;10.098;2022-07-25T02:09:24;7.65;;;5.53;;
43807;SDS011;29438;50.664;10.098;2022-07-25T02:11:49;8.60;;;5.82;;
43807;SDS011;29438;50.664;10.098;2022-07-25T02:14:15;8.25;;;5.65;;
43807;SDS011;29438;50.664;10.098;2022-07-25T02:16:40;9.02;;;5.25;;
43807;SDS011;29438;50.664;10.098;2022-07-25T02:19:06;10.50;;;5.97;;
43807;SDS011;29438;50.664;10.098;2022-07-25T02:21:32;8.40;;;5.82;;
43807;SDS011;29438;50.664;10.098;2022-07-25T02:23:58;8.30;;;5.60;;
43807;SDS011;29438;50.664;10.098;2022-07-25T02:26:23;7.20;;;5.55;;
43807;SDS011;29438;50.664;10.098;2022-07-25T02:28:49;7.72;;;5.90;;
43807;SDS011;29438;50.664;10.098;2022-07-25T02:31:14;9.68;;;6.18;;
43807;SDS011;29438;50.664;10.098;2022-07-25T02:33:40;7.65;;;5.80;;
43807;SDS011;29438;50.664;10.098;2022-07-25T02:36:06;7.35;;;5.45;;
43807;SDS011;29438;50.664;10.098;2022-07-25T02:38:32;7.88;;;5.60;;
43807;SDS011;29438;50.664;10.098;2022-07-25T02:40:57;7.63;;;5.65;;
43807;SDS011;29438;50.664;10.098;2022-07-25T02:43:23;8.30;;;5.88;;
43807;SDS011;29438;50.664;10.098;2022-07-25T02:45:48;8.57;;;5.43;;
43807;SDS011;29438;50.664;10.098;2022-07-25T02:48:14;9.48;;;5.72;;
43807;SDS011;29438;50.664;10.098;2022-07-25T02:50:39;7.95;;;5.55;;
43807;SDS011;29438;50.664;10.098;2022-07-25T02:53:05;10.23;;;5.65;;
43807;SDS011;29438;50.664;10.098;2022-07-25T02:55:31;8.73;;;5.95;;
43807;SDS011;29438;50.664;10.098;2022-07-25T02:57:56;7.65;;;5.60;;
43807;SDS011;29438;50.664;10.098;2022-07-25T03:00:22;8.30;;;5.88;;
43807;SDS011;29438;50.664;10.098;2022-07-25T03:02:48;8.75;;;5.75;;
43807;SDS011;29438;50.664;10.098;2022-07-25T03:05:14;7.75;;;5.45;;
43807;SDS011;29438;50.664;10.098;2022-07-25T03:07:40;8.55;;;5.80;;
43807;SDS011;29438;50.664;10.098;2022-07-25T03:10:07;8.48;;;6.00;;
43807;SDS011;29438;50.664;10.098;2022-07-25T03:12:34;9.00;;;6.13;;
43807;SDS011;29438;50.664;10.098;2022-07-25T03:15:01;7.50;;;5.65;;
43807;SDS011;29438;50.664;10.098;2022-07-25T03:17:28;8.18;;;6.03;;
43807;SDS011;29438;50.664;10.098;2022-07-25T03:19:54;8.35;;;5.95;;
43807;SDS011;29438;50.664;10.098;2022-07-25T03:22:20;8.05;;;5.80;;
43807;SDS011;29438;50.664;10.098;2022-07-25T03:24:47;10.00;;;5.75;;
43807;SDS011;29438;50.664;10.098;2022-07-25T03:27:12;8.90;;;5.97;;
43807;SDS011;29438;50.664;10.098;2022-07-25T03:29:38;8.52;;;6.20;;
43807;SDS011;29438;50.664;10.098;2022-07-25T03:32:04;9.18;;;5.90;;
43807;SDS011;29438;50.664;10.098;2022-07-25T03:34:30;8.45;;;6.30;;
43807;SDS011;29438;50.664;10.098;2022-07-25T03:36:56;7.85;;;5.72;;
43807;SDS011;29438;50.664;10.098;2022-07-25T03:39:21;7.60;;;5.65;;
43807;SDS011;29438;50.664;10.098;2022-07-25T03:41:48;7.97;;;5.88;;
43807;SDS011;29438;50.664;10.098;2022-07-25T03:44:15;9.00;;;6.05;;
43807;SDS011;29438;50.664;10.098;2022-07-25T03:46:40;7.75;;;5.40;;
43807;SDS011;29438;50.664;10.098;2022-07-25T03:49:06;7.95;;;5.78;;
43807;SDS011;29438;50.664;10.098;2022-07-25T03:51:31;7.18;;;5.28;;
43807;SDS011;29438;50.664;10.098;2022-07-25T03:53:57;8.32;;;5.65;;
43807;SDS011;29438;50.664;10.098;2022-07-25T03:56:39;8.43;;;6.22;;
43807;SDS011;29438;50.664;10.098;2022-07-25T03:59:09;10.15;;;6.00;;
43807;SDS011;29438;50.664;10.098;2022-07-25T04:01:36;8.98;;;5.40;;
43807;SDS011;29438;50.664;10.098;2022-07-25T04:04:02;8.55;;;5.47;;
43807;SDS011;29438;50.664;10.098;2022-07-25T04:06:29;11.30;;;5.35;;
43807;SDS011;29438;50.664;10.098;2022-07-25T04:08:54;8.00;;;5.82;;
43807;SDS011;29438;50.664;10.098;2022-07-25T04:11:20;8.82;;;5.40;;
43807;SDS011;29438;50.664;10.098;2022-07-25T04:13:46;7.93;;;5.63;;
43807;SDS011;29438;50.664;10.098;2022-07-25T04:16:12;8.05;;;5.57;;
43807;SDS011;29438;50.664;10.098;2022-07-25T04:18:38;8.70;;;5.82;;
43807;SDS011;29438;50.664;10.098;2022-07-25T04:21:04;7.60;;;5.45;;
43807;SDS011;29438;50.664;10.098;2022-07-25T04:23:29;8.48;;;5.60;;
43807;SDS011;29438;50.664;10.098;2022-07-25T04:25:55;8.77;;;5.40;;
43807;SDS011;29438;50.664;10.098;2022-07-25T04:28:21;8.07;;;5.97;;
43807;SDS011;29438;50.664;10.098;2022-07-25T04:30:48;8.27;;;6.07;;
43807;SDS011;29438;50.664;10.098;2022-07-25T04:33:14;7.25;;;5.57;;
43807;SDS011;29438;50.664;10.098;2022-07-25T04:35:39;7.93;;;5.57;;
43807;SDS011;29438;50.664;10.098;2022-07-25T04:38:05;7.10;;;5.55;;
43807;SDS011;29438;50.664;10.098;2022-07-25T04:40:30;6.60;;;5.53;;
43807;SDS011;29438;50.664;10.098;2022-07-25T04:42:56;7.22;;;5.30;;
43807;SDS011;29438;50.664;10.098;2022-07-25T04:45:22;6.40;;;5.18;;
43807;SDS011;29438;50.664;10.098;2022-07-25T04:47:47;6.00;;;5.22;;
43807;SDS011;29438;50.664;10.098;2022-07-25T04:50:13;7.40;;;5.65;;
43807;SDS011;29438;50.664;10.098;2022-07-25T04:52:39;7.82;;;4.82;;
43807;SDS011;29438;50.664;10.098;2022-07-25T04:55:05;7.88;;;5.40;;
43807;SDS011;29438;50.664;10.098;2022-07-25T04:57:31;6.40;;;5.20;;
43807;SDS011;29438;50.664;10.098;2022-07-25T05:02:55;7.22;;;5.50;;
43807;SDS011;29438;50.664;10.098;2022-07-25T05:05:21;5.70;;;5.13;;
43807;SDS011;29438;50.664;10.098;2022-07-25T05:07:46;6.25;;;5.18;;
43807;SDS011;29438;50.664;10.098;2022-07-25T05:10:12;6.22;;;5.22;;
43807;SDS011;29438;50.664;10.098;2022-07-25T05:12:37;6.43;;;5.22;;
43807;SDS011;29438;50.664;10.098;2022-07-25T05:15:03;6.10;;;4.95;;
43807;SDS011;29438;50.664;10.098;2022-07-25T05:17:30;5.53;;;4.70;;
43807;SDS011;29438;50.664;10.098;2022-07-25T05:19:56;6.70;;;4.90;;
43807;SDS011;29438;50.664;10.098;2022-07-25T05:22:22;6.65;;;4.90;;
43807;SDS011;29438;50.664;10.098;2022-07-25T05:24:48;7.38;;;4.80;;
43807;SDS011;29438;50.664;10.098;2022-07-25T05:27:14;7.45;;;4.85;;
43807;SDS011;29438;50.664;10.098;2022-07-25T05:29:39;6.65;;;4.78;;
43807;SDS011;29438;50.664;10.098;2022-07-25T05:32:05;5.95;;;4.82;;
43807;SDS011;29438;50.664;10.098;2022-07-25T05:34:30;5.90;;;5.18;;
43807;SDS011;29438;50.664;10.098;2022-07-25T05:36:56;7.20;;;5.35;;
43807;SDS011;29438;50.664;10.098;2022-07-25T05:39:21;6.93;;;5.25;;
43807;SDS011;29438;50.664;10.098;2022-07-25T05:41:47;6.95;;;5.20;;
43807;SDS011;29438;50.664;10.098;2022-07-25T05:44:12;5.88;;;4.90;;
43807;SDS011;29438;50.664;10.098;2022-07-25T05:46:38;5.90;;;5.30;;
43807;SDS011;29438;50.664;10.098;2022-07-25T05:49:03;5.97;;;5.28;;
43807;SDS011;29438;50.664;10.098;2022-07-25T05:51:29;5.80;;;5.20;;
43807;SDS011;29438;50.664;10.098;2022-07-25T05:53:54;5.78;;;5.00;;
43807;SDS011;29438;50.664;10.098;2022-07-25T05:56:20;5.53;;;4.85;;
43807;SDS011;29438;50.664;10.098;2022-07-25T05:58:45;6.32;;;5.20;;
43807;SDS011;29438;50.664;10.098;2022-07-25T06:01:11;6.13;;;5.53;;
43807;SDS011;29438;50.664;10.098;2022-07-25T06:03:38;6.60;;;5.55;;
43807;SDS011;29438;50.664;10.098;2022-07-25T06:06:03;6.72;;;5.32;;
43807;SDS011;29438;50.664;10.098;2022-07-25T06:08:29;6.28;;;5.68;;
43807;SDS011;29438;50.664;10.098;2022-07-25T06:10:56;5.93;;;5.32;;
43807;SDS011;29438;50.664;10.098;2022-07-25T06:13:22;6.93;;;5.55;;
43807;SDS011;29438;50.664;10.098;2022-07-25T06:15:48;5.93;;;5.32;;
43807;SDS011;29438;50.664;10.098;2022-07-25T06:21:31;7.15;;;5.97;;
43807;SDS011;29438;50.664;10.098;2022-07-25T06:23:56;9.25;;;6.28;;
43807;SDS011;29438;50.664;10.098;2022-07-25T06:26:22;7.15;;;6.07;;
43807;SDS011;29438;50.664;10.098;2022-07-25T06:28:48;6.63;;;5.75;;
43807;SDS011;29438;50.664;10.098;2022-07-25T06:31:14;6.40;;;5.70;;
43807;SDS011;29438;50.664;10.098;2022-07-25T06:33:40;7.65;;;5.90;;
43807;SDS011;29438;50.664;10.098;2022-07-25T06:36:06;6.28;;;5.65;;
43807;SDS011;29438;50.664;10.098;2022-07-25T06:38:32;6.32;;;5.72;;
43807;SDS011;29438;50.664;10.098;2022-07-25T06:40:58;7.45;;;6.00;;
43807;SDS011;29438;50.664;10.098;2022-07-25T06:43:24;8.18;;;6.07;;
43807;SDS011;29438;50.664;10.098;2022-07-25T06:45:49;6.43;;;5.78;;
43807;SDS011;29438;50.664;10.098;2022-07-25T06:48:15;6.70;;;5.75;;
43807;SDS011;29438;50.664;10.098;2022-07-25T06:50:43;8.30;;;5.45;;
43807;SDS011;29438;50.664;10.098;2022-07-25T06:53:10;6.50;;;5.43;;
43807;SDS011;29438;50.664;10.098;2022-07-25T06:55:35;7.80;;;5.95;;
43807;SDS011;29438;50.664;10.098;2022-07-25T06:58:01;6.80;;;5.75;;
43807;SDS011;29438;50.664;10.098;2022-07-25T07:00:26;7.13;;;6.43;;
43807;SDS011;29438;50.664;10.098;2022-07-25T07:02:56;7.38;;;5.97;;
43807;SDS011;29438;50.664;10.098;2022-07-25T07:05:26;7.78;;;6.47;;
43807;SDS011;29438;50.664;10.098;2022-07-25T07:07:56;7.45;;;6.68;;
43807;SDS011;29438;50.664;10.098;2022-07-25T07:10:22;7.88;;;6.57;;
43807;SDS011;29438;50.664;10.098;2022-07-25T07:12:48;8.05;;;6.78;;
43807;SDS011;29438;50.664;10.098;2022-07-25T07:15:14;7.72;;;6.38;;
43807;SDS011;29438;50.664;10.098;2022-07-25T07:17:40;8.18;;;7.03;;
43807;SDS011;29438;50.664;10.098;2022-07-25T07:20:06;8.30;;;7.00;;
43807;SDS011;29438;50.664;10.098;2022-07-25T07:22:43;10.25;;;7.80;;
43807;SDS011;29438;50.664;10.098;2022-07-25T07:25:13;9.30;;;6.65;;
43807;SDS011;29438;50.664;10.098;2022-07-25T07:27:39;7.75;;;6.72;;
43807;SDS011;29438;50.664;10.098;2022-07-25T07:30:05;7.93;;;6.65;;
43807;SDS011;29438;50.664;10.098;2022-07-25T07:32:31;8.75;;;7.10;;
43807;SDS011;29438;50.664;10.098;2022-07-25T07:34:57;8.35;;;6.90;;
43807;SDS011;29438;50.664;10.098;2022-07-25T07:37:22;7.93;;;6.90;;
43807;SDS011;29438;50.664;10.098;2022-07-25T07:39:48;9.50;;;7.05;;
43807;SDS011;29438;50.664;10.098;2022-07-25T07:42:14;8.02;;;6.90;;
43807;SDS011;29438;50.664;10.098;2022-07-25T07:44:39;9.45;;;6.63;;
43807;SDS011;29438;50.664;10.098;2022-07-25T07:47:05;8.10;;;6.80;;
43807;SDS011;29438;50.664;10.098;2022-07-25T07:49:30;9.45;;;6.60;;
43807;SDS011;29438;50.664;10.098;2022-07-25T07:51:56;7.43;;;6.60;;
43807;SDS011;29438;50.664;10.098;2022-07-25T07:54:21;8.68;;;6.15;;
43807;SDS011;29438;50.664;10.098;2022-07-25T07:57:05;7.70;;;6.18;;
43807;SDS011;29438;50.664;10.098;2022-07-25T07:59:30;8.18;;;6.40;;
43807;SDS011;29438;50.664;10.098;2022-07-25T08:01:56;7.78;;;6.20;;
43807;SDS011;29438;50.664;10.098;2022-07-25T08:04:21;9.13;;;6.18;;
43807;SDS011;29438;50.664;10.098;2022-07-25T08:06:47;7.80;;;6.05;;
43807;SDS011;29438;50.664;10.098;2022-07-25T08:09:12;7.60;;;6.30;;
43807;SDS011;29438;50.664;10.098;2022-07-25T08:11:38;6.80;;;6.10;;
43807;SDS011;29438;50.664;10.098;2022-07-25T08:14:03;9.02;;;6.30;;
43807;SDS011;29438;50.664;10.098;2022-07-25T08:16:30;6.95;;;6.13;;
43807;SDS011;29438;50.664;10.098;2022-07-25T08:18:57;8.38;;;6.20;;
43807;SDS011;29438;50.664;10.098;2022-07-25T08:21:22;7.72;;;6.20;;
43807;SDS011;29438;50.664;10.098;2022-07-25T08:23:48;6.85;;;5.95;;
43807;SDS011;29438;50.664;10.098;2022-07-25T08:26:13;6.53;;;5.90;;
43807;SDS011;29438;50.664;10.098;2022-07-25T08:28:39;6.40;;;5.80;;
43807;SDS011;29438;50.664;10.098;2022-07-25T08:31:05;6.70;;;6.00;;
43807;SDS011;29438;50.664;10.098;2022-07-25T08:33:31;6.72;;;5.72;;
43807;SDS011;29438;50.664;10.098;2022-07-25T08:35:56;6.13;;;5.53;;
43807;SDS011;29438;50.664;10.098;2022-07-25T08:38:26;7.13;;;5.80;;
43807;SDS011;29438;50.664;10.098;2022-07-25T08:40:52;6.80;;;5.80;;
43807;SDS011;29438;50.664;10.098;2022-07-25T08:43:19;7.65;;;6.20;;
43807;SDS011;29438;50.664;10.098;2022-07-25T08:45:49;6.45;;;5.57;;
43807;SDS011;29438;50.664;10.098;2022-07-25T08:48:16;6.53;;;5.70;;
43807;SDS011;29438;50.664;10.098;2022-07-25T08:50:44;7.32;;;6.07;;
43807;SDS011;29438;50.664;10.098;2022-07-25T08:53:14;6.90;;;6.22;;
43807;SDS011;29438;50.664;10.098;2022-07-25T08:55:41;6.80;;;6.10;;
43807;SDS011;29438;50.664;10.098;2022-07-25T08:58:09;6.60;;;6.00;;
43807;SDS011;29438;50.664;10.098;2022-07-25T09:00:36;6.90;;;6.00;;
43807;SDS011;29438;50.664;10.098;2022-07-25T09:03:02;6.22;;;5.55;;
43807;SDS011;29438;50.664;10.098;2022-07-25T09:05:30;6.40;;;5.80;;
43807;SDS011;29438;50.664;10.098;2022-07-25T09:07:57;6.93;;;5.72;;
43807;SDS011;29438;50.664;10.098;2022-07-25T09:10:35;6.30;;;5.70;;
43807;SDS011;29438;50.664;10.098;2022-07-25T09:15:38;6.88;;;6.13;;
43807;SDS011;29438;50.664;10.098;2022-07-25T09:18:07;6.50;;;5.80;;
43807;SDS011;29438;50.664;10.098;2022-07-25T09:23:04;6.28;;;5.68;;
43807;SDS011;29438;50.664;10.098;2022-07-25T09:25:30;6.80;;;6.10;;
43807;SDS011;29438;50.664;10.098;2022-07-25T09:28:08;8.18;;;5.82;;
43807;SDS011;29438;50.664;10.098;2022-07-25T09:30:38;6.50;;;5.85;;
43807;SDS011;29438;50.664;10.098;2022-07-25T09:33:05;6.70;;;6.00;;
43807;SDS011;29438;50.664;10.098;2022-07-25T09:35:31;6.30;;;5.70;;
43807;SDS011;29438;50.664;10.098;2022-07-25T09:38:08;6.57;;;5.97;;
43807;SDS011;29438;50.664;10.098;2022-07-25T09:40:34;6.93;;;6.22;;
43807;SDS011;29438;50.664;10.098;2022-07-25T09:43:00;6.60;;;6.00;;
43807;SDS011;29438;50.664;10.098;2022-07-25T09:45:25;7.32;;;6.32;;
43807;SDS011;29438;50.664;10.098;2022-07-25T09:47:55;7.78;;;6.15;;
43807;SDS011;29438;50.664;10.098;2022-07-25T09:50:23;6.30;;;5.70;;
43807;SDS011;29438;50.664;10.098;2022-07-25T09:52:50;7.10;;;5.43;;
43807;SDS011;29438;50.664;10.098;2022-07-25T09:55:17;6.65;;;5.70;;
43807;SDS011;29438;50.664;10.098;2022-07-25T09:57:44;8.57;;;5.50;;
43807;SDS011;29438;50.664;10.098;2022-07-25T10:00:11;6.40;;;5.80;;
43807;SDS011;29438;50.664;10.098;2022-07-25T10:02:45;6.13;;;5.55;;
43807;SDS011;29438;50.664;10.098;2022-07-25T10:05:15;6.10;;;5.50;;
43807;SDS011;29438;50.664;10.098;2022-07-25T10:07:55;5.97;;;5.38;;
43807;SDS011;29438;50.664;10.098;2022-07-25T10:10:28;5.90;;;5.30;;
43807;SDS011;29438;50.664;10.098;2022-07-25T10:15:38;7.40;;;4.90;;
43807;SDS011;29438;50.664;10.098;2022-07-25T10:18:09;5.68;;;5.18;;
43807;SDS011;29438;50.664;10.098;2022-07-25T10:20:35;6.45;;;5.00;;
43807;SDS011;29438;50.664;10.098;2022-07-25T10:23:01;5.60;;;4.75;;
43807;SDS011;29438;50.664;10.098;2022-07-25T10:25:27;5.15;;;4.28;;
43807;SDS011;29438;50.664;10.098;2022-07-25T10:27:53;5.07;;;4.28;;
43807;SDS011;29438;50.664;10.098;2022-07-25T10:30:32;4.88;;;4.38;;
43807;SDS011;29438;50.664;10.098;2022-07-25T10:33:00;4.93;;;4.40;;
43807;SDS011;29438;50.664;10.098;2022-07-25T10:35:28;6.57;;;4.55;;
43807;SDS011;29438;50.664;10.098;2022-07-25T10:37:55;5.40;;;4.07;;
43807;SDS011;29438;50.664;10.098;2022-07-25T10:40:31;4.43;;;4.00;;
43807;SDS011;29438;50.664;10.098;2022-07-25T10:43:07;6.45;;;4.40;;
43807;SDS011;29438;50.664;10.098;2022-07-25T10:45:37;4.70;;;4.30;;
43807;SDS011;29438;50.664;10.098;2022-07-25T10:48:20;4.50;;;4.10;;
43807;SDS011;29438;50.664;10.098;2022-07-25T10:50:55;5.25;;;4.07;;
43807;SDS011;29438;50.664;10.098;2022-07-25T10:55:58;5.55;;;4.53;;
43807;SDS011;29438;50.664;10.098;2022-07-25T10:58:27;5.05;;;4.50;;
43807;SDS011;29438;50.664;10.098;2022-07-25T11:01:04;5.88;;;4.30;;
43807;SDS011;29438;50.664;10.098;2022-07-25T11:03:31;4.78;;;4.30;;
43807;SDS011;29438;50.664;10.098;2022-07-25T11:05:57;5.07;;;4.28;;
43807;SDS011;29438;50.664;10.098;2022-07-25T11:08:30;6.05;;;4.40;;
43807;SDS011;29438;50.664;10.098;2022-07-25T11:10:56;5.07;;;4.57;;
43807;SDS011;29438;50.664;10.098;2022-07-25T11:13:22;4.82;;;4.32;;
43807;SDS011;29438;50.664;10.098;2022-07-25T11:15:48;5.07;;;4.55;;
43807;SDS011;29438;50.664;10.098;2022-07-25T11:18:14;6.15;;;5.00;;
43807;SDS011;29438;50.664;10.098;2022-07-25T11:20:39;4.90;;;4.40;;
43807;SDS011;29438;50.664;10.098;2022-07-25T11:23:05;5.40;;;4.90;;
43807;SDS011;29438;50.664;10.098;2022-07-25T11:25:30;8.13;;;4.90;;
43807;SDS011;29438;50.664;10.098;2022-07-25T11:27:57;5.15;;;4.65;;
43807;SDS011;29438;50.664;10.098;2022-07-25T11:30:24;5.97;;;4.70;;
43807;SDS011;29438;50.664;10.098;2022-07-25T11:32:54;5.20;;;4.68;;
43807;SDS011;29438;50.664;10.098;2022-07-25T11:35:23;6.28;;;4.85;;
43807;SDS011;29438;50.664;10.098;2022-07-25T11:37:50;6.28;;;5.15;;
43807;SDS011;29438;50.664;10.098;2022-07-25T11:40:16;6.07;;;4.93;;
43807;SDS011;29438;50.664;10.098;2022-07-25T11:42:43;5.60;;;5.00;;
43807;SDS011;29438;50.664;10.098;2022-07-25T11:45:23;5.75;;;4.63;;
43807;SDS011;29438;50.664;10.098;2022-07-25T11:48:04;5.20;;;4.60;;
43807;SDS011;29438;50.664;10.098;2022-07-25T11:50:33;5.43;;;4.55;;
43807;SDS011;29438;50.664;10.098;2022-07-25T11:53:04;5.28;;;4.75;;
43807;SDS011;29438;50.664;10.098;2022-07-25T11:55:33;5.80;;;4.80;;
43807;SDS011;29438;50.664;10.098;2022-07-25T11:58:02;7.65;;;4.97;;
43807;SDS011;29438;50.664;10.098;2022-07-25T12:00:28;5.93;;;5.20;;
43807;SDS011;29438;50.664;10.098;2022-07-25T12:03:04;6.43;;;5.32;;
43807;SDS011;29438;50.664;10.098;2022-07-25T12:05:34;5.57;;;4.80;;
43807;SDS011;29438;50.664;10.098;2022-07-25T12:08:10;6.07;;;4.90;;
43807;SDS011;29438;50.664;10.098;2022-07-25T12:10:37;7.68;;;4.95;;
43807;SDS011;29438;50.664;10.098;2022-07-25T12:13:04;5.30;;;4.80;;
43807;SDS011;29438;50.664;10.098;2022-07-25T12:15:34;5.70;;;4.80;;
43807;SDS011;29438;50.664;10.098;2022-07-25T12:18:02;6.78;;;5.18;;
43807;SDS011;29438;50.664;10.098;2022-07-25T12:23:03;5.97;;;4.80;;
43807;SDS011;29438;50.664;10.098;2022-07-25T12:25:30;6.53;;;4.90;;
43807;SDS011;29438;50.664;10.098;2022-07-25T12:27:57;6.25;;;5.00;;
43807;SDS011;29438;50.664;10.098;2022-07-25T12:30:24;7.18;;;5.10;;
43807;SDS011;29438;50.664;10.098;2022-07-25T12:32:51;5.47;;;4.70;;
43807;SDS011;29438;50.664;10.098;2022-07-25T12:35:16;6.65;;;4.65;;
43807;SDS011;29438;50.664;10.098;2022-07-25T12:37:42;4.70;;;4.30;;
43807;SDS011;29438;50.664;10.098;2022-07-25T12:40:08;4.70;;;4.20;;
43807;SDS011;29438;50.664;10.098;2022-07-25T12:42:35;5.65;;;4.28;;
43807;SDS011;29438;50.664;10.098;2022-07-25T12:45:01;4.90;;;4.40;;
43807;SDS011;29438;50.664;10.098;2022-07-25T12:47:27;6.93;;;4.78;;
43807;SDS011;29438;50.664;10.098;2022-07-25T12:49:53;5.32;;;4.70;;
43807;SDS011;29438;50.664;10.098;2022-07-25T12:52:19;5.38;;;4.88;;
43807;SDS011;29438;50.664;10.098;2022-07-25T12:54:44;5.32;;;4.03;;
43807;SDS011;29438;50.664;10.098;2022-07-25T12:57:11;5.20;;;4.70;;
43807;SDS011;29438;50.664;10.098;2022-07-25T12:59:37;5.78;;;4.80;;
43807;SDS011;29438;50.664;10.098;2022-07-25T13:02:03;5.93;;;4.78;;
43807;SDS011;29438;50.664;10.098;2022-07-25T13:04:29;5.72;;;4.18;;
43807;SDS011;29438;50.664;10.098;2022-07-25T13:06:54;5.30;;;4.07;;
43807;SDS011;29438;50.664;10.098;2022-07-25T13:09:20;4.72;;;3.75;;
43807;SDS011;29438;50.664;10.098;2022-07-25T13:11:46;4.22;;;3.28;;
43807;SDS011;29438;50.664;10.098;2022-07-25T13:14:12;5.38;;;3.83;;
43807;SDS011;29438;50.664;10.098;2022-07-25T13:16:39;5.75;;;3.67;;
43807;SDS011;29438;50.664;10.098;2022-07-25T13:19:08;4.85;;;3.67;;
43807;SDS011;29438;50.664;10.098;2022-07-25T13:21:34;5.13;;;3.92;;
43807;SDS011;29438;50.664;10.098;2022-07-25T13:24:00;4.60;;;3.83;;
43807;SDS011;29438;50.664;10.098;2022-07-25T13:26:26;4.75;;;3.95;;
43807;SDS011;29438;50.664;10.098;2022-07-25T13:28:51;4.68;;;3.75;;
43807;SDS011;29438;50.664;10.098;2022-07-25T13:31:17;4.65;;;3.90;;
43807;SDS011;29438;50.664;10.098;2022-07-25T13:33:44;4.22;;;3.83;;
43807;SDS011;29438;50.664;10.098;2022-07-25T13:36:10;4.63;;;4.13;;
43807;SDS011;29438;50.664;10.098;2022-07-25T13:38:36;4.78;;;4.28;;
43807;SDS011;29438;50.664;10.098;2022-07-25T13:41:05;5.05;;;4.32;;
43807;SDS011;29438;50.664;10.098;2022-07-25T13:43:31;5.70;;;4.50;;
43807;SDS011;29438;50.664;10.098;2022-07-25T13:45:56;5.22;;;4.70;;
43807;SDS011;29438;50.664;10.098;2022-07-25T13:48:22;5.07;;;4.47;;
43807;SDS011;29438;50.664;10.098;2022-07-25T13:50:47;5.30;;;4.53;;
43807;SDS011;29438;50.664;10.098;2022-07-25T13:53:13;5.80;;;4.50;;
43807;SDS011;29438;50.664;10.098;2022-07-25T13:55:39;5.78;;;4.55;;
43807;SDS011;29438;50.664;10.098;2022-07-25T13:58:04;5.38;;;4.00;;
43807;SDS011;29438;50.664;10.098;2022-07-25T14:00:30;5.72;;;4.15;;
43807;SDS011;29438;50.664;10.098;2022-07-25T14:02:55;4.47;;;4.00;;
43807;SDS011;29438;50.664;10.098;2022-07-25T14:05:21;6.32;;;4.03;;
43807;SDS011;29438;50.664;10.098;2022-07-25T14:07:46;5.22;;;3.50;;
43807;SDS011;29438;50.664;10.098;2022-07-25T14:10:12;4.05;;;3.42;;
43807;SDS011;29438;50.664;10.098;2022-07-25T14:12:37;4.35;;;3.40;;
43807;SDS011;29438;50.664;10.098;2022-07-25T14:15:06;5.10;;;3.38;;
43807;SDS011;29438;50.664;10.098;2022-07-25T14:17:32;5.20;;;3.60;;
43807;SDS011;29438;50.664;10.098;2022-07-25T14:19:58;7.35;;;3.78;;
43807;SDS011;29438;50.664;10.098;2022-07-25T14:22:24;6.10;;;3.95;;
43807;SDS011;29438;50.664;10.098;2022-07-25T14:24:49;5.40;;;4.25;;
43807;SDS011;29438;50.664;10.098;2022-07-25T14:27:15;4.95;;;4.25;;
43807;SDS011;29438;50.664;10.098;2022-07-25T14:29:41;6.15;;;4.60;;
43807;SDS011;29438;50.664;10.098;2022-07-25T14:32:06;7.38;;;4.90;;
43807;SDS011;29438;50.664;10.098;2022-07-25T14:34:32;4.82;;;3.95;;
43807;SDS011;29438;50.664;10.098;2022-07-25T14:36:58;6.97;;;4.18;;
43807;SDS011;29438;50.664;10.098;2022-07-25T14:39:24;5.22;;;4.18;;
43807;SDS011;29438;50.664;10.098;2022-07-25T14:41:50;5.18;;;4.20;;
43807;SDS011;29438;50.664;10.098;2022-07-25T14:44:16;7.28;;;4.30;;
43807;SDS011;29438;50.664;10.098;2022-07-25T14:46:42;6.10;;;3.95;;
43807;SDS011;29438;50.664;10.098;2022-07-25T14:49:10;5.10;;;4.03;;